Time;durP1;ratioP1;P1;durP2;ratioP2;P2;SDS_P1;SDS_P2;PMS_P1;PMS_P2;Temp;Humidity;BMP_temperature;BMP_pressure;BME280_temperature;BME280_humidity;BME280_pressure;Samples;Min_cycle;Max_cycle;Signal;HPM_P1;HPM_P2
2023/05/03 00:02:13;;;;;;;;;;;;;;;26.06;30.66;101501.38;5091896;28;1095;-22
2023/05/03 00:04:40;;;;;;;;;;;;;;;26.04;31.04;101499.66;5083090;28;976;-24
2023/05/03 00:07:05;;;;;;;;;;;;;;;25.98;30.81;101494.03;5079027;28;1071;-22
2023/05/03 00:09:32;;;;;;;;;;;;;;;25.96;31.20;101494.19;5098411;28;1138;-22
2023/05/03 00:11:59;;;;;;;;;;;;;;;25.90;31.26;101495.69;5096956;28;1066;-22
2023/05/03 00:14:24;;;;;;;;;;;;;;;26.00;31.16;101503.69;5077823;28;1229;-22
2023/05/03 00:16:50;;;;;;;;;;;;;;;25.99;30.87;101506.53;5090654;28;1992;-22
2023/05/03 00:19:16;;;;;;;;;;;;;;;25.97;31.43;101503.16;5086742;28;1054;-23
2023/05/03 00:21:42;;;;;;;;;;;;;;;25.90;31.45;101490.28;5085039;28;1102;-21
2023/05/03 00:24:07;;;;;;;;;;;;;;;25.91;31.18;101494.69;5089423;28;1085;-22
2023/05/03 00:26:33;;;;;;;;;;;;;;;25.86;31.52;101488.09;5078305;28;1042;-21
2023/05/03 00:28:59;;;;;;;;;;;;;;;25.92;31.02;101482.88;5084044;28;922;-23
2023/05/03 00:31:25;;;;;;;;;;;;;;;25.94;31.14;101480.06;5060149;28;1138;-22
2023/05/03 00:33:50;;;;;;;;;;;;;;;25.69;31.74;101479.88;5086228;28;1043;-22
2023/05/03 00:36:16;;;;;;;;;;;;;;;25.92;30.94;101482.88;5083497;28;1906;-23
2023/05/03 00:38:42;;;;;;;;;;;;;;;25.89;31.14;101480.50;5077325;28;1142;-23
2023/05/03 00:41:11;;;;;;;;;;;;;;;26.06;31.20;101477.91;5078197;28;948;-22
2023/05/03 00:43:37;;;;;;;;;;;;;;;25.94;31.29;101477.38;5077785;28;1016;-22
2023/05/03 00:46:02;;;;;;;;;;;;;;;25.98;31.01;101481.41;5064750;28;1293;-22
2023/05/03 00:48:28;;;;;;;;;;;;;;;25.96;31.21;101477.19;5088957;28;1190;-22
2023/05/03 00:50:54;;;;;;;;;;;;;;;26.02;31.25;101472.03;5092891;28;1022;-22
2023/05/03 00:53:21;;;;;;;;;;;;;;;25.95;30.96;101462.88;5070262;28;1250;-21
2023/05/03 00:55:46;;;;;;;;;;;;;;;25.79;31.38;101469.00;5076124;28;2411;-22
2023/05/03 00:58:12;;;;;;;;;;;;;;;25.71;31.44;101463.53;5085662;28;1078;-21
2023/05/03 01:00:37;;;;;;;;;;;;;;;25.87;31.39;101458.28;5081446;28;1101;-23
2023/05/03 01:03:03;;;;;;;;;;;;;;;25.91;31.43;101454.25;5085902;28;1078;-22
2023/05/03 01:05:31;;;;;;;;;;;;;;;25.95;31.14;101457.47;5063705;28;920;-22
2023/05/03 01:08:07;;;;;;;;;;;;;;;25.83;31.52;101450.63;5079061;28;1170;-23
2023/05/03 01:10:45;;;;;;;;;;;;;;;25.84;31.69;101458.56;5083633;28;1135;-22
2023/05/03 01:13:28;;;;;;;;;;;;;;;25.93;31.36;101459.47;5085440;28;1035;-23
2023/05/03 01:16:23;;;;;;;;;;;;;;;25.97;31.29;101458.16;5079603;28;2119;-22
2023/05/03 01:18:49;;;;;;;;;;;;;;;25.91;31.31;101458.78;5078746;28;1251;-22
2023/05/03 01:21:16;;;;;;;;;;;;;;;26.03;31.14;101454.84;5068987;28;1500;-22
2023/05/03 01:23:42;;;;;;;;;;;;;;;26.06;31.45;101458.22;5083777;28;1216;-23
2023/05/03 01:26:35;;;;;;;;;;;;;;;25.99;31.64;101452.63;5068444;28;1067;-23
2023/05/03 01:29:00;;;;;;;;;;;;;;;26.01;31.22;101461.38;5076211;28;1638;-22
2023/05/03 01:31:32;;;;;;;;;;;;;;;26.07;31.15;101460.75;5077769;28;1100;-24
2023/05/03 01:34:11;;;;;;;;;;;;;;;25.88;31.76;101457.25;5078687;28;1117;-22
2023/05/03 01:36:37;;;;;;;;;;;;;;;25.99;31.35;101466.09;5092772;28;1967;-25
2023/05/03 01:39:04;;;;;;;;;;;;;;;26.02;31.71;101465.78;5058455;28;1218;-22
2023/05/03 01:41:30;;;;;;;;;;;;;;;25.90;31.85;101467.88;5089785;28;1075;-22
2023/05/03 01:43:55;;;;;;;;;;;;;;;26.04;31.22;101453.81;5082402;28;1146;-21
2023/05/03 01:46:21;;;;;;;;;;;;;;;26.05;31.46;101468.16;5095583;28;1110;-23
2023/05/03 01:48:47;;;;;;;;;;;;;;;25.87;31.81;101460.13;5086093;28;1078;-22
2023/05/03 01:51:12;;;;;;;;;;;;;;;25.89;31.64;101461.63;5093283;28;1075;-22
2023/05/03 01:53:38;;;;;;;;;;;;;;;25.87;31.93;101462.81;5067482;28;906;-21
2023/05/03 01:56:03;;;;;;;;;;;;;;;26.16;31.37;101464.34;5061790;28;1902;-21
2023/05/03 01:58:29;;;;;;;;;;;;;;;26.06;31.53;101461.75;5068001;28;1099;-21
2023/05/03 02:00:55;;;;;;;;;;;;;;;25.94;31.78;101458.50;5089633;28;1007;-23
2023/05/03 02:03:21;;;;;;;;;;;;;;;25.97;31.58;101457.31;5075107;28;1133;-22
2023/05/03 02:05:47;;;;;;;;;;;;;;;25.76;32.00;101455.81;5088897;28;1110;-21
2023/05/03 02:08:12;;;;;;;;;;;;;;;25.90;31.81;101457.94;5076360;28;1058;-21
2023/05/03 02:10:38;;;;;;;;;;;;;;;25.98;31.88;101459.00;5075892;28;1071;-22
2023/05/03 02:13:03;;;;;;;;;;;;;;;25.73;32.01;101461.50;5076327;28;1034;-22
2023/05/03 02:15:29;;;;;;;;;;;;;;;25.89;31.85;101456.25;5057795;28;1115;-22
2023/05/03 02:17:57;;;;;;;;;;;;;;;26.04;31.56;101461.91;5063236;28;1902;-22
2023/05/03 02:20:23;;;;;;;;;;;;;;;25.94;31.75;101463.03;5071217;28;1122;-22
2023/05/03 02:22:48;;;;;;;;;;;;;;;25.97;31.95;101460.00;5075997;28;1193;-22
2023/05/03 02:25:14;;;;;;;;;;;;;;;25.84;31.89;101457.72;5076438;28;1129;-22
2023/05/03 02:27:40;;;;;;;;;;;;;;;25.99;31.71;101458.00;5086251;28;1114;-21
2023/05/03 02:30:06;;;;;;;;;;;;;;;25.84;31.94;101460.44;5077473;28;1135;-22
2023/05/03 02:32:37;;;;;;;;;;;;;;;26.09;31.66;101461.44;5079380;28;1162;-22
2023/05/03 02:35:05;;;;;;;;;;;;;;;25.80;31.93;101468.84;5081936;28;1202;-22
2023/05/03 02:37:31;;;;;;;;;;;;;;;26.05;31.50;101468.16;5070471;28;1984;-22
2023/05/03 02:39:56;;;;;;;;;;;;;;;25.97;31.67;101471.66;5061707;28;1040;-21
2023/05/03 02:42:22;;;;;;;;;;;;;;;25.86;31.77;101477.31;5086367;28;828;-22
2023/05/03 02:44:48;;;;;;;;;;;;;;;25.83;32.12;101472.19;5093485;28;1007;-21
2023/05/03 02:47:14;;;;;;;;;;;;;;;25.82;31.96;101474.06;5062090;28;1542;-22
2023/05/03 02:49:41;;;;;;;;;;;;;;;25.93;31.68;101472.94;5063852;28;1161;-22
2023/05/03 02:52:07;;;;;;;;;;;;;;;25.87;32.32;101476.28;5099866;28;1128;-21
2023/05/03 02:54:32;;;;;;;;;;;;;;;25.56;32.34;101467.59;5068122;28;1434;-22
2023/05/03 02:57:02;;;;;;;;;;;;;;;25.33;31.41;101477.97;5081409;28;1913;-30
2023/05/03 02:59:27;;;;;;;;;;;;;;;25.04;31.74;101479.84;5085231;28;1059;-22
2023/05/03 03:01:53;;;;;;;;;;;;;;;24.72;31.51;101478.47;5070020;28;1229;-21
2023/05/03 03:04:19;;;;;;;;;;;;;;;24.46;31.61;101477.28;5066419;28;1299;-23
2023/05/03 03:06:45;;;;;;;;;;;;;;;24.45;31.37;101472.06;5087244;28;984;-22
2023/05/03 03:09:11;;;;;;;;;;;;;;;24.50;31.03;101487.75;5066706;28;1111;-21
2023/05/03 03:11:38;;;;;;;;;;;;;;;24.42;31.14;101475.88;5069706;28;1259;-21
2023/05/03 03:14:04;;;;;;;;;;;;;;;24.45;31.05;101469.38;5081265;28;1141;-22
2023/05/03 03:16:29;;;;;;;;;;;;;;;24.64;30.85;101479.19;5068992;28;1906;-22
2023/05/03 03:18:55;;;;;;;;;;;;;;;24.67;30.53;101486.94;5080217;28;1107;-21
2023/05/03 03:21:21;;;;;;;;;;;;;;;24.50;30.71;101477.00;5079181;28;1296;-21
2023/05/03 03:23:47;;;;;;;;;;;;;;;24.58;30.77;101477.94;5078448;28;1333;-21
2023/05/03 03:26:12;;;;;;;;;;;;;;;24.49;30.91;101473.44;5060635;28;1330;-21
2023/05/03 03:28:38;;;;;;;;;;;;;;;24.41;30.92;101474.19;5060235;28;1218;-21
2023/05/03 03:31:08;;;;;;;;;;;;;;;24.53;30.77;101472.16;5081211;28;1273;-21
2023/05/03 03:33:34;;;;;;;;;;;;;;;24.53;30.67;101471.31;5078771;28;1276;-21
2023/05/03 03:36:06;;;;;;;;;;;;;;;24.45;30.81;101486.34;5070829;28;1902;-23
2023/05/03 03:38:36;;;;;;;;;;;;;;;24.35;30.97;101490.91;5081155;28;1114;-22
2023/05/03 03:41:05;;;;;;;;;;;;;;;24.34;31.39;101492.75;5080316;28;1508;-21
2023/05/03 03:43:31;;;;;;;;;;;;;;;23.94;31.91;101501.88;5075746;28;1222;-20
2023/05/03 03:45:58;;;;;;;;;;;;;;;23.96;31.78;101495.34;5060505;28;1119;-23
2023/05/03 03:48:23;;;;;;;;;;;;;;;23.47;32.83;101498.06;5077495;28;1186;-24
2023/05/03 03:50:49;;;;;;;;;;;;;;;23.48;33.08;101497.91;5060470;28;1154;-21
2023/05/03 03:53:15;;;;;;;;;;;;;;;23.43;33.16;101488.56;5063521;28;1427;-19
2023/05/03 03:55:42;;;;;;;;;;;;;;;24.38;32.40;101484.38;5069129;28;1917;-20
2023/05/03 03:58:07;;;;;;;;;;;;;;;23.64;32.67;101493.78;5073736;28;1382;-20
2023/05/03 04:00:33;;;;;;;;;;;;;;;23.64;32.96;101492.97;5090147;28;1123;-20
2023/05/03 04:03:06;;;;;;;;;;;;;;;23.88;32.67;101494.34;5061425;28;1245;-20
2023/05/03 04:05:31;;;;;;;;;;;;;;;23.93;32.73;101489.41;5061992;28;1035;-20
2023/05/03 04:07:57;;;;;;;;;;;;;;;24.08;32.25;101495.19;5072129;28;1415;-20
2023/05/03 04:10:26;;;;;;;;;;;;;;;24.01;32.56;101494.06;5073711;28;1324;-20
2023/05/03 04:12:52;;;;;;;;;;;;;;;24.19;32.36;101500.41;5080461;28;1619;-21
2023/05/03 04:15:18;;;;;;;;;;;;;;;24.27;32.33;101497.03;5077685;28;1122;-20
2023/05/03 04:17:45;;;;;;;;;;;;;;;24.23;32.33;101494.75;5075039;28;1913;-20
2023/05/03 04:20:12;;;;;;;;;;;;;;;24.25;32.55;101507.06;5071876;28;1415;-22
2023/05/03 04:22:40;;;;;;;;;;;;;;;24.29;32.57;101502.25;5091737;28;1151;-20
2023/05/03 04:25:09;;;;;;;;;;;;;;;24.23;32.84;101503.69;5059978;28;1218;-20
2023/05/03 04:27:37;;;;;;;;;;;;;;;24.22;32.97;101502.00;5063237;28;1086;-20
2023/05/03 04:30:05;;;;;;;;;;;;;;;24.11;33.25;101508.31;5077957;28;1091;-20
2023/05/03 04:32:36;;;;;;;;;;;;;;;23.80;33.68;101501.31;5062962;28;1457;-20
2023/05/03 04:35:09;;;;;;;;;;;;;;;23.97;33.67;101504.25;5070994;28;1492;-20
2023/05/03 04:37:36;;;;;;;;;;;;;;;24.11;33.31;101499.44;5071319;28;1914;-20
2023/05/03 04:40:08;;;;;;;;;;;;;;;24.69;32.22;101511.88;5079421;28;1051;-20
2023/05/03 04:42:37;;;;;;;;;;;;;;;24.82;31.81;101506.16;5079018;28;1244;-20
2023/05/03 04:45:05;;;;;;;;;;;;;;;24.78;31.82;101502.06;5079658;28;1133;-21
2023/05/03 04:47:31;;;;;;;;;;;;;;;24.85;31.93;101504.16;5084484;28;1006;-20
2023/05/03 04:49:57;;;;;;;;;;;;;;;24.84;31.56;101506.00;5066190;28;1222;-20
2023/05/03 04:52:26;;;;;;;;;;;;;;;24.97;31.64;101508.41;5079992;28;1421;-20
2023/05/03 04:54:53;;;;;;;;;;;;;;;25.14;31.47;101509.41;5081971;28;1419;-20
2023/05/03 04:57:19;;;;;;;;;;;;;;;26.96;29.05;101508.25;5057383;28;1965;-21
2023/05/03 04:59:45;;;;;;;;;;;;;;;26.34;29.22;101510.16;5067862;28;1351;-21
2023/05/03 05:02:11;;;;;;;;;;;;;;;25.44;30.90;101518.16;5075946;28;1537;-21
2023/05/03 05:04:37;;;;;;;;;;;;;;;25.72;30.43;101519.13;5079685;28;1075;-21
2023/05/03 05:07:02;;;;;;;;;;;;;;;25.23;31.24;101529.22;5095902;28;1209;-20
2023/05/03 05:09:30;;;;;;;;;;;;;;;25.24;31.11;101533.59;5050914;28;1123;-20
2023/05/03 05:11:58;;;;;;;;;;;;;;;25.33;30.86;101537.22;5066041;28;1217;-20
2023/05/03 05:14:28;;;;;;;;;;;;;;;25.54;30.57;101534.22;5078992;28;1138;-20
2023/05/03 05:16:54;;;;;;;;;;;;;;;25.50;30.57;101538.25;5066565;28;1913;-21
2023/05/03 05:19:20;;;;;;;;;;;;;;;25.56;30.31;101540.31;5062579;28;1224;-20
2023/05/03 05:21:46;;;;;;;;;;;;;;;25.42;30.97;101541.69;5070358;28;1265;-20
2023/05/03 05:24:13;;;;;;;;;;;;;;;25.36;31.04;101538.78;5079150;28;1440;-20
2023/05/03 05:26:40;;;;;;;;;;;;;;;25.74;29.99;101538.69;5071779;28;1641;-21
2023/05/03 05:29:06;;;;;;;;;;;;;;;25.59;30.51;101549.09;5078309;28;1564;-21
2023/05/03 05:31:31;;;;;;;;;;;;;;;25.32;31.19;101546.31;5072898;28;1156;-21
2023/05/03 05:33:57;;;;;;;;;;;;;;;25.88;30.25;101542.66;5078820;28;1400;-21
2023/05/03 05:36:23;;;;;;;;;;;;;;;25.24;31.25;101538.97;5064869;28;1898;-20
2023/05/03 05:38:49;;;;;;;;;;;;;;;25.22;31.34;101543.69;5078335;28;1145;-20
2023/05/03 05:41:15;;;;;;;;;;;;;;;26.01;30.09;101551.19;5093167;28;1082;-22
2023/05/03 05:43:41;;;;;;;;;;;;;;;25.73;30.40;101543.22;5074249;28;1212;-21
2023/05/03 05:46:07;;;;;;;;;;;;;;;25.24;31.61;101543.53;5073319;28;1095;-22
2023/05/03 05:48:33;;;;;;;;;;;;;;;25.76;30.30;101542.91;5091112;28;1107;-22
2023/05/03 05:51:00;;;;;;;;;;;;;;;25.64;30.65;101549.53;5078472;28;1156;-21
2023/05/03 05:53:25;;;;;;;;;;;;;;;25.26;31.51;101547.75;5064902;28;1170;-21
2023/05/03 05:55:56;;;;;;;;;;;;;;;25.75;30.23;101549.31;5077570;28;1905;-22
2023/05/03 05:58:24;;;;;;;;;;;;;;;25.52;30.25;101555.13;5066532;28;1102;-21
2023/05/03 06:00:56;;;;;;;;;;;;;;;25.03;31.39;101564.31;5068231;28;1511;-21
2023/05/03 06:03:21;;;;;;;;;;;;;;;26.09;29.70;101566.56;5079849;28;1032;-21
2023/05/03 06:05:49;;;;;;;;;;;;;;;26.19;29.54;101558.44;5064368;28;1487;-21
2023/05/03 06:08:14;;;;;;;;;;;;;;;25.34;30.49;101559.63;5076934;28;1240;-20
2023/05/03 06:10:40;;;;;;;;;;;;;;;25.85;29.10;101568.09;5073723;28;1313;-21
2023/05/03 06:13:06;;;;;;;;;;;;;;;25.71;29.21;101568.63;5082669;28;1071;-21
2023/05/03 06:15:32;;;;;;;;;;;;;;;25.10;30.10;101566.41;5068846;28;1274;-21
2023/05/03 06:17:59;;;;;;;;;;;;;;;25.74;28.84;101573.72;5073010;28;1906;-20
2023/05/03 06:20:25;;;;;;;;;;;;;;;25.77;28.74;101565.31;5089875;28;1089;-20
2023/05/03 06:22:51;;;;;;;;;;;;;;;25.17;29.54;101581.81;5063305;28;1150;-21
2023/05/03 06:25:17;;;;;;;;;;;;;;;25.55;29.62;101575.50;5064446;28;1158;-21
2023/05/03 06:27:44;;;;;;;;;;;;;;;25.66;29.53;101579.84;5071183;28;1374;-21
2023/05/03 06:30:10;;;;;;;;;;;;;;;25.41;29.58;101577.72;5062468;28;1102;-20
2023/05/03 06:32:37;;;;;;;;;;;;;;;25.33;30.06;101577.63;5066207;28;1373;-20
2023/05/03 06:35:03;;;;;;;;;;;;;;;25.86;29.73;101572.47;5080601;28;2169;-20
2023/05/03 06:37:28;;;;;;;;;;;;;;;25.53;29.77;101569.41;5073957;28;1910;-23
2023/05/03 06:39:54;;;;;;;;;;;;;;;25.13;30.35;101561.56;5089559;28;1068;-22
2023/05/03 06:42:20;;;;;;;;;;;;;;;26.12;29.26;101552.81;5077643;28;847;-21
2023/05/03 06:44:47;;;;;;;;;;;;;;;25.86;29.37;101556.28;5064156;28;1308;-21
2023/05/03 06:47:12;;;;;;;;;;;;;;;25.23;30.29;101550.75;5090185;28;1008;-21
2023/05/03 06:49:38;;;;;;;;;;;;;;;25.79;29.46;101549.84;5096115;28;994;-20
2023/05/03 06:52:03;;;;;;;;;;;;;;;25.96;29.42;101550.81;5089523;28;941;-21
2023/05/03 06:54:29;;;;;;;;;;;;;;;25.45;30.11;101540.56;5094955;28;1091;-22
2023/05/03 06:56:55;;;;;;;;;;;;;;;25.31;30.20;101537.38;5076046;28;1977;-23
2023/05/03 06:59:20;;;;;;;;;;;;;;;25.98;29.25;101537.16;5080720;28;1154;-21
2023/05/03 07:01:46;;;;;;;;;;;;;;;25.81;29.38;101550.50;5082298;28;1046;-21
2023/05/03 07:04:11;;;;;;;;;;;;;;;25.37;30.49;101564.69;5079688;28;1142;-21
2023/05/03 07:06:37;;;;;;;;;;;;;;;26.15;29.26;101565.13;5085835;28;1181;-21
2023/05/03 07:09:03;;;;;;;;;;;;;;;26.04;29.30;101567.06;5092841;28;1138;-21
2023/05/03 07:11:29;;;;;;;;;;;;;;;25.73;29.57;101569.31;5077834;28;1050;-21
2023/05/03 07:13:54;;;;;;;;;;;;;;;25.82;28.88;101568.41;5081822;28;1042;-20
2023/05/03 07:16:20;;;;;;;;;;;;;;;26.19;28.68;101566.53;5074196;28;1902;-21
2023/05/03 07:18:46;;;;;;;;;;;;;;;25.63;29.54;101567.53;5083877;28;1027;-21
2023/05/03 07:21:12;;;;;;;;;;;;;;;25.19;29.98;101571.72;5099399;28;1109;-21
2023/05/03 07:23:38;;;;;;;;;;;;;;;26.08;28.44;101567.59;5092749;28;1106;-21
2023/05/03 07:26:03;;;;;;;;;;;;;;;25.96;28.48;101569.69;5099305;28;1038;-20
2023/05/03 07:28:29;;;;;;;;;;;;;;;25.29;29.47;101565.47;5089624;28;1047;-21
2023/05/03 07:30:54;;;;;;;;;;;;;;;25.98;28.38;101570.38;5078888;28;1114;-21
2023/05/03 07:33:20;;;;;;;;;;;;;;;26.05;28.48;101578.69;5093583;28;1062;-21
2023/05/03 07:35:45;;;;;;;;;;;;;;;25.72;28.87;101590.03;5079420;28;1206;-21
2023/05/03 07:38:12;;;;;;;;;;;;;;;25.28;29.83;101596.94;5083080;28;1914;-22
2023/05/03 07:40:37;;;;;;;;;;;;;;;26.10;28.74;101595.25;5079402;28;1151;-21
2023/05/03 07:43:03;;;;;;;;;;;;;;;26.19;28.22;101606.97;5089596;28;1019;-20
2023/05/03 07:45:28;;;;;;;;;;;;;;;25.65;29.20;101602.41;5079223;28;1059;-21
2023/05/03 07:47:55;;;;;;;;;;;;;;;25.41;29.51;101614.56;5080987;28;1106;-21
2023/05/03 07:50:21;;;;;;;;;;;;;;;25.99;29.06;101619.75;5072351;28;1055;-20
2023/05/03 07:52:50;;;;;;;;;;;;;;;26.11;27.88;101623.91;5092891;28;1206;-21
2023/05/03 07:55:16;;;;;;;;;;;;;;;25.75;28.62;101621.19;5087515;28;1030;-22
2023/05/03 07:57:42;;;;;;;;;;;;;;;25.39;28.65;101628.19;5082470;28;1973;-20
2023/05/03 08:00:09;;;;;;;;;;;;;;;26.25;27.54;101633.31;5087614;28;1124;-21
2023/05/03 08:02:38;;;;;;;;;;;;;;;26.13;27.98;101656.97;5086406;28;1054;-21
2023/05/03 08:05:04;;;;;;;;;;;;;;;25.48;29.31;101653.38;5084434;28;1201;-21
2023/05/03 08:07:30;;;;;;;;;;;;;;;25.29;30.02;101654.34;5091574;28;1234;-21
2023/05/03 08:09:57;;;;;;;;;;;;;;;26.33;28.66;101658.66;5097396;28;1111;-22
2023/05/03 08:12:24;;;;;;;;;;;;;;;26.13;29.11;101662.34;5086265;28;1182;-21
2023/05/03 08:14:53;;;;;;;;;;;;;;;26.04;29.92;101666.81;5078391;28;1122;-21
2023/05/03 08:17:19;;;;;;;;;;;;;;;25.63;31.34;101663.69;5083811;28;1975;-20
2023/05/03 08:19:46;;;;;;;;;;;;;;;25.79;30.89;101671.13;5090036;28;1154;-22
2023/05/03 08:22:11;;;;;;;;;;;;;;;26.38;29.73;101654.50;5079512;28;1253;-21
2023/05/03 08:24:37;;;;;;;;;;;;;;;26.49;29.53;101653.41;5078520;28;1127;-21
2023/05/03 08:27:03;;;;;;;;;;;;;;;25.87;30.70;101656.88;5091223;28;1270;-21
2023/05/03 08:29:29;;;;;;;;;;;;;;;25.45;31.19;101656.38;5077470;28;1108;-20
2023/05/03 08:31:54;;;;;;;;;;;;;;;26.12;30.40;101660.66;5090074;28;1187;-20
2023/05/03 08:34:20;;;;;;;;;;;;;;;26.76;28.36;101650.72;5077905;28;895;-21
2023/05/03 08:36:45;;;;;;;;;;;;;;;27.02;28.33;101663.41;5087274;28;1933;-21
2023/05/03 08:39:11;;;;;;;;;;;;;;;27.14;28.07;101667.50;5097709;28;998;-21
2023/05/03 08:41:36;;;;;;;;;;;;;;;27.17;28.19;101657.41;5084173;28;1194;-22
2023/05/03 08:44:04;;;;;;;;;;;;;;;27.12;28.36;101669.56;5071168;28;1293;-20
2023/05/03 08:46:29;;;;;;;;;;;;;;;26.93;28.15;101667.88;5063025;28;1247;-24
2023/05/03 08:48:55;;;;;;;;;;;;;;;26.85;28.49;101667.81;5097569;28;1100;-21
2023/05/03 08:51:21;;;;;;;;;;;;;;;26.88;28.55;101668.38;5084765;28;1313;-22
2023/05/03 08:53:47;;;;;;;;;;;;;;;26.53;29.07;101667.44;5097617;28;1058;-21
2023/05/03 08:56:18;;;;;;;;;;;;;;;26.48;29.26;101669.75;5084168;28;1913;-21
2023/05/03 08:58:44;;;;;;;;;;;;;;;25.77;30.15;101681.19;5079475;28;1034;-21
2023/05/03 09:01:09;;;;;;;;;;;;;;;25.61;30.04;101673.75;5080485;28;1138;-21
2023/05/03 09:03:35;;;;;;;;;;;;;;;25.82;29.84;101675.34;5077348;28;1047;-21
2023/05/03 09:06:01;;;;;;;;;;;;;;;26.55;28.83;101668.13;5096471;28;1175;-21
2023/05/03 09:08:26;;;;;;;;;;;;;;;26.29;29.48;101669.75;5097265;28;1022;-21
2023/05/03 09:10:52;;;;;;;;;;;;;;;25.95;29.65;101656.97;5084422;28;1229;-22
2023/05/03 09:13:18;;;;;;;;;;;;;;;26.26;29.49;101644.91;5097770;28;1125;-22
2023/05/03 09:15:47;;;;;;;;;;;;;;;26.52;29.03;101626.13;5096913;28;1164;-20
2023/05/03 09:18:12;;;;;;;;;;;;;;;26.52;28.95;101614.47;5079625;28;1901;-20
2023/05/03 09:20:38;;;;;;;;;;;;;;;26.67;29.03;101630.94;5084010;28;1213;-20
2023/05/03 09:23:04;;;;;;;;;;;;;;;26.55;28.82;101616.88;5084722;28;1082;-21
2023/05/03 09:25:42;;;;;;;;;;;;;;;26.17;29.61;101625.97;5070405;28;1059;-21
2023/05/03 09:28:08;;;;;;;;;;;;;;;25.96;29.88;101628.16;5084272;28;1218;-20
2023/05/03 09:30:33;;;;;;;;;;;;;;;26.08;29.54;101628.75;5083908;28;1182;-21
2023/05/03 09:32:59;;;;;;;;;;;;;;;26.22;29.16;101627.38;5096527;28;916;-21
2023/05/03 09:35:24;;;;;;;;;;;;;;;26.16;28.50;101634.22;5078857;28;1034;-22
2023/05/03 09:37:50;;;;;;;;;;;;;;;26.32;28.40;101632.69;5085948;28;1898;-21
2023/05/03 09:40:17;;;;;;;;;;;;;;;26.23;28.45;101623.66;5088752;28;1070;-21
2023/05/03 09:43:01;;;;;;;;;;;;;;;25.95;28.42;101621.06;5089877;28;1135;-21
2023/05/03 09:45:26;;;;;;;;;;;;;;;25.63;28.95;101615.19;5090113;28;1025;-22
2023/05/03 09:47:54;;;;;;;;;;;;;;;25.54;29.12;101598.88;5083786;28;998;-22
2023/05/03 09:50:20;;;;;;;;;;;;;;;26.10;29.02;101602.50;5065611;28;1146;-21
2023/05/03 09:52:46;;;;;;;;;;;;;;;26.07;28.18;101616.28;5067246;28;1257;-21
2023/05/03 09:55:11;;;;;;;;;;;;;;;25.59;28.66;101613.78;5083313;28;1265;-21
2023/05/03 09:57:37;;;;;;;;;;;;;;;25.32;28.96;101605.56;5095139;28;1909;-21
2023/05/03 10:00:02;;;;;;;;;;;;;;;25.76;28.46;101609.41;5065170;28;1085;-21
2023/05/03 10:02:37;;;;;;;;;;;;;;;26.12;28.32;101597.78;5087703;28;1034;-21
2023/05/03 10:05:02;;;;;;;;;;;;;;;26.23;27.51;101596.69;5089834;28;1007;-21
2023/05/03 10:07:28;;;;;;;;;;;;;;;25.54;28.63;101590.81;5093841;28;1122;-21
2023/05/03 10:09:56;;;;;;;;;;;;;;;25.48;28.82;101587.88;5060502;28;1027;-20
2023/05/03 10:12:22;;;;;;;;;;;;;;;25.84;28.15;101595.19;5077682;28;1190;-21
2023/05/03 10:14:48;;;;;;;;;;;;;;;26.27;27.68;101574.66;5082198;28;1146;-20
2023/05/03 10:17:15;;;;;;;;;;;;;;;26.06;27.99;101591.16;5057208;28;1910;-21
2023/05/03 10:19:45;;;;;;;;;;;;;;;25.88;28.21;101599.25;5089193;28;1281;-22
2023/05/03 10:22:10;;;;;;;;;;;;;;;26.03;28.18;101584.25;5077914;28;1029;-20
2023/05/03 10:24:36;;;;;;;;;;;;;;;26.27;27.83;101582.75;5082638;28;1277;-21
2023/05/03 10:27:03;;;;;;;;;;;;;;;26.32;27.58;101574.19;5094353;28;1115;-20
2023/05/03 10:29:33;;;;;;;;;;;;;;;26.32;27.54;101579.59;5066871;28;1250;-20
2023/05/03 10:31:59;;;;;;;;;;;;;;;26.36;27.75;101574.75;5091254;28;1209;-21
2023/05/03 10:34:24;;;;;;;;;;;;;;;26.40;27.52;101568.88;5086103;28;1483;-21
2023/05/03 10:36:52;;;;;;;;;;;;;;;26.43;27.43;101558.75;5060424;28;1979;-21
2023/05/03 10:39:20;;;;;;;;;;;;;;;26.26;27.78;101561.31;5076122;28;1008;-20
2023/05/03 10:42:06;;;;;;;;;;;;;;;26.47;27.24;101573.63;5087435;28;1113;-20
2023/05/03 10:44:47;;;;;;;;;;;;;;;26.52;27.12;101561.38;5092112;28;1318;-21
2023/05/03 10:47:16;;;;;;;;;;;;;;;26.12;27.58;101560.03;5094579;28;1050;-22
2023/05/03 10:49:42;;;;;;;;;;;;;;;25.94;27.22;101565.47;5086917;28;944;-22
2023/05/03 10:52:26;;;;;;;;;;;;;;;25.79;27.82;101566.00;5075030;28;984;-21
2023/05/03 10:54:51;;;;;;;;;;;;;;;26.43;26.72;101573.09;5086525;28;1204;-21
2023/05/03 10:57:17;;;;;;;;;;;;;;;26.47;26.89;101571.81;5098377;28;1976;-21
2023/05/03 10:59:46;;;;;;;;;;;;;;;25.86;28.76;101575.16;5073248;28;1070;-22
2023/05/03 11:02:11;;;;;;;;;;;;;;;25.67;31.39;101573.47;5093206;28;1049;-21
2023/05/03 11:04:38;;;;;;;;;;;;;;;26.09;30.96;101568.44;5070684;28;1050;-21
2023/05/03 11:07:03;;;;;;;;;;;;;;;26.47;31.09;101563.69;5086432;28;1043;-22
2023/05/03 11:09:31;;;;;;;;;;;;;;;26.29;30.71;101566.41;5097346;28;1153;-21
2023/05/03 11:11:56;;;;;;;;;;;;;;;26.02;30.38;101566.38;5093376;28;1162;-21
2023/05/03 11:14:22;;;;;;;;;;;;;;;25.67;30.42;101555.44;5089568;28;1125;-21
2023/05/03 11:16:49;;;;;;;;;;;;;;;25.75;29.32;101556.53;5100003;28;1984;-21
2023/05/03 11:19:15;;;;;;;;;;;;;;;26.34;26.98;101556.00;5085540;28;1025;-21
2023/05/03 11:21:41;;;;;;;;;;;;;;;26.41;26.46;101550.81;5080869;28;1118;-22
2023/05/03 11:24:06;;;;;;;;;;;;;;;25.93;27.23;101559.22;5085576;28;1059;-21
2023/05/03 11:26:38;;;;;;;;;;;;;;;25.80;27.15;101552.38;5099228;28;1292;-21
2023/05/03 11:29:04;;;;;;;;;;;;;;;25.81;27.14;101542.44;5096932;28;1245;-22
2023/05/03 11:31:29;;;;;;;;;;;;;;;25.96;25.99;101549.97;5079422;28;1071;-21
2023/05/03 11:33:55;;;;;;;;;;;;;;;25.82;24.79;101549.53;5063647;28;1020;-21
2023/05/03 11:36:20;;;;;;;;;;;;;;;26.25;24.07;101549.69;5095983;28;1977;-21
2023/05/03 11:38:46;;;;;;;;;;;;;;;25.95;25.04;101549.13;5082068;28;1242;-21
2023/05/03 11:41:13;;;;;;;;;;;;;;;25.70;25.51;101557.00;5099146;28;1054;-21
2023/05/03 11:43:45;;;;;;;;;;;;;;;25.60;25.27;101543.56;5097565;28;1077;-21
2023/05/03 11:46:11;;;;;;;;;;;;;;;26.49;24.19;101550.06;5088125;28;880;-21
2023/05/03 11:48:36;;;;;;;;;;;;;;;26.02;24.93;101539.44;5065460;28;1126;-21
2023/05/03 11:51:05;;;;;;;;;;;;;;;25.62;25.62;101541.56;5078988;28;1035;-21
2023/05/03 11:53:31;;;;;;;;;;;;;;;25.64;25.49;101544.97;5087469;28;1050;-21
2023/05/03 11:55:57;;;;;;;;;;;;;;;26.46;24.76;101534.19;5088696;28;1155;-21
2023/05/03 11:58:26;;;;;;;;;;;;;;;26.30;25.06;101533.03;5095676;28;1972;-22
2023/05/03 12:00:55;;;;;;;;;;;;;;;26.00;25.84;101538.72;5088529;28;1114;-23
2023/05/03 12:03:21;;;;;;;;;;;;;;;26.01;26.28;101528.78;5098149;28;1216;-22
2023/05/03 12:05:46;;;;;;;;;;;;;;;25.80;26.92;101527.25;5091666;28;1143;-22
2023/05/03 12:08:12;;;;;;;;;;;;;;;26.08;26.62;101520.91;5098649;28;1037;-21
2023/05/03 12:10:38;;;;;;;;;;;;;;;26.01;26.66;101512.59;5097816;28;1074;-21
2023/05/03 12:13:04;;;;;;;;;;;;;;;25.85;26.89;101508.78;5096734;28;1146;-22
2023/05/03 12:15:34;;;;;;;;;;;;;;;26.47;26.47;101495.41;5082601;28;1252;-21
2023/05/03 12:18:00;;;;;;;;;;;;;;;26.50;26.33;101513.97;5078034;28;1909;-23
2023/05/03 12:20:29;;;;;;;;;;;;;;;26.01;27.39;101518.00;5087057;28;1094;-21
2023/05/03 12:22:55;;;;;;;;;;;;;;;25.90;27.61;101524.47;5088494;28;976;-21
2023/05/03 12:25:21;;;;;;;;;;;;;;;26.07;27.03;101530.00;5084784;28;1007;-21
2023/05/03 12:27:47;;;;;;;;;;;;;;;25.88;27.25;101531.88;5096178;28;1045;-21
2023/05/03 12:30:13;;;;;;;;;;;;;;;26.01;27.02;101535.00;5077617;28;1177;-21
2023/05/03 12:32:38;;;;;;;;;;;;;;;26.08;26.89;101529.84;5077165;28;1002;-21
2023/05/03 12:35:04;;;;;;;;;;;;;;;26.23;26.75;101524.72;5096304;28;865;-21
2023/05/03 12:37:30;;;;;;;;;;;;;;;25.89;27.03;101525.50;5093914;28;1914;-21
2023/05/03 12:39:56;;;;;;;;;;;;;;;26.40;25.33;101522.16;5096024;28;1074;-20
2023/05/03 12:42:21;;;;;;;;;;;;;;;26.33;25.52;101532.75;5078944;28;1037;-21
2023/05/03 12:44:47;;;;;;;;;;;;;;;25.98;25.66;101529.94;5088648;28;1209;-21
2023/05/03 12:47:12;;;;;;;;;;;;;;;25.78;25.92;101523.88;5096736;28;876;-21